Time;durP1;ratioP1;P1;durP2;ratioP2;P2;SDS_P1;SDS_P2;PMS_P1;PMS_P2;Temp;Humidity;BMP_temperature;BMP_pressure;BME280_temperature;BME280_humidity;BME280_pressure;Samples;Min_cycle;Max_cycle;Signal;HPM_P1;HPM_P2
2021/12/20 00:02:20;;;;;;;9.73;4.80;;;0.60;99.90;;;;;;5094523;28;20299;-79
2021/12/20 00:04:51;;;;;;;9.97;5.73;;;0.60;99.90;;;;;;5095089;28;20674;-79
2021/12/20 00:07:18;;;;;;;14.10;5.25;;;0.50;99.90;;;;;;5095292;28;20596;-78
2021/12/20 00:09:45;;;;;;;;;;;0.60;99.90;;;;;;5094982;28;20293;-79
2021/12/20 00:12:12;;;;;;;;;;;0.60;99.90;;;;;;5093941;28;20270;-79
2021/12/20 00:14:40;;;;;;;;;;;0.60;99.90;;;;;;5093796;28;20181;-78
2021/12/20 00:17:08;;;;;;;;;;;0.50;99.90;;;;;;5091601;28;20679;-79
2021/12/20 00:19:34;;;;;;;;;;;0.50;99.90;;;;;;5092416;28;20040;-78
2021/12/20 00:22:02;;;;;;;11.35;4.95;;;0.50;99.90;;;;;;5094465;28;20203;-79
2021/12/20 00:24:29;;;;;;;10.20;5.50;;;0.50;99.90;;;;;;5093065;28;20198;-79
2021/12/20 00:26:56;;;;;;;;;;;0.60;99.90;;;;;;5094949;28;20271;-79
2021/12/20 00:29:24;;;;;;;8.85;5.10;;;0.50;99.90;;;;;;5094605;28;20207;-79
2021/12/20 00:31:52;;;;;;;;;;;0.60;99.90;;;;;;5094811;28;20253;-79
2021/12/20 00:34:19;;;;;;;;;;;0.50;99.90;;;;;;5094552;28;20611;-79
2021/12/20 00:36:56;;;;;;;8.60;5.10;;;0.50;99.90;;;;;;5094505;28;20216;-79
2021/12/20 00:42:07;;;;;;;;;;;0.50;99.90;;;;;;5092459;28;20204;-79
2021/12/20 00:44:34;;;;;;;;;;;0.50;99.90;;;;;;5093053;28;20221;-79
2021/12/20 00:47:02;;;;;;;;;;;0.50;99.90;;;;;;5093704;28;25058;-79
2021/12/20 00:49:29;;;;;;;;;;;0.50;99.90;;;;;;5094526;28;20332;-80
2021/12/20 00:51:56;;;;;;;;;;;0.50;99.90;;;;;;5094572;28;21041;-78
2021/12/20 00:54:22;;;;;;;;;;;0.50;99.90;;;;;;5094883;28;20254;-80
2021/12/20 00:56:49;;;;;;;;;;;0.50;99.90;;;;;;5094928;28;20117;-79
2021/12/20 00:59:16;;;;;;;;;;;0.50;99.90;;;;;;5094489;28;20121;-79
2021/12/20 01:01:43;;;;;;;;;;;0.50;99.90;;;;;;5094525;28;20071;-79
2021/12/20 01:04:11;;;;;;;;;;;0.50;99.90;;;;;;5094797;28;19993;-78
2021/12/20 01:06:38;;;;;;;;;;;0.40;99.90;;;;;;5094405;28;20474;-79
2021/12/20 01:09:05;;;;;;;;;;;0.50;99.90;;;;;;5094862;28;19972;-80
2021/12/20 01:11:38;;;;;;;;;;;0.40;99.90;;;;;;5094740;28;19967;-78
2021/12/20 01:14:05;;;;;;;;;;;0.50;99.90;;;;;;5094989;28;19969;-79
2021/12/20 01:16:33;;;;;;;;;;;0.40;99.90;;;;;;5093898;28;19966;-79
2021/12/20 01:19:00;;;;;;;;;;;0.50;99.90;;;;;;5094395;28;20020;-79
2021/12/20 01:21:29;;;;;;;;;;;0.40;99.90;;;;;;5094443;28;19995;-79
2021/12/20 01:23:56;;;;;;;;;;;0.40;99.90;;;;;;5094154;28;20048;-79
2021/12/20 01:26:23;;;;;;;;;;;0.40;99.90;;;;;;5093995;28;20424;-80
2021/12/20 01:28:50;;;;;;;7.40;3.03;;;0.50;99.90;;;;;;5093922;28;20012;-79
2021/12/20 01:31:17;;;;;;;5.67;2.70;;;0.50;99.90;;;;;;5093485;28;20246;-79
2021/12/20 01:33:44;;;;;;;5.43;2.63;;;0.60;99.90;;;;;;5093778;28;20203;-79
2021/12/20 01:36:11;;;;;;;5.50;2.37;;;0.60;99.90;;;;;;5093099;28;20191;-79
2021/12/20 01:38:39;;;;;;;;;;;0.70;99.90;;;;;;5094043;28;20730;-80
2021/12/20 01:41:07;;;;;;;;;;;0.80;99.90;;;;;;5093812;28;21138;-78
2021/12/20 01:43:34;;;;;;;;;;;0.80;99.90;;;;;;5094056;28;20104;-78
2021/12/20 01:46:01;;;;;;;;;;;0.90;99.90;;;;;;5093533;28;19990;-79
2021/12/20 01:48:29;;;;;;;;;;;1.00;99.90;;;;;;5093900;28;20016;-78
2021/12/20 01:53:54;;;;;;;;;;;1.10;99.90;;;;;;5093815;28;20060;-79
2021/12/20 01:56:20;;;;;;;;;;;1.20;99.90;;;;;;5093558;28;20033;-78
2021/12/20 01:58:47;;;;;;;;;;;1.20;99.90;;;;;;5093372;28;19977;-79
2021/12/20 02:01:24;;;;;;;;;;;1.30;99.90;;;;;;5093507;28;19987;-78
2021/12/20 02:03:57;;;;;;;;;;;1.30;99.90;;;;;;5093325;28;20066;-78
2021/12/20 02:06:28;;;;;;;;;;;1.40;99.90;;;;;;5093726;28;19976;-79
2021/12/20 02:08:57;;;;;;;;;;;1.30;99.90;;;;;;5093285;28;20048;-79
2021/12/20 02:11:24;;;;;;;;;;;1.30;99.90;;;;;;5093639;28;20471;-78
2021/12/20 02:13:51;;;;;;;;;;;1.40;99.90;;;;;;5093488;28;19976;-79
2021/12/20 02:16:19;;;;;;;;;;;1.30;99.90;;;;;;5092833;28;19961;-78
2021/12/20 02:18:46;;;;;;;;;;;1.20;99.90;;;;;;5092992;28;20019;-79
2021/12/20 02:21:14;;;;;;;;;;;1.20;99.90;;;;;;5093534;28;20319;-79
2021/12/20 02:23:41;;;;;;;;;;;1.20;99.90;;;;;;5093677;28;20028;-78
2021/12/20 02:26:11;;;;;;;;;;;1.10;99.90;;;;;;5093268;28;20315;-79
2021/12/20 02:28:41;;;;;;;;;;;1.00;99.90;;;;;;5092924;28;19977;-78
2021/12/20 02:39:23;;;;;;;;;;;0.80;99.90;;;;;;5092901;28;20062;-78
2021/12/20 02:41:50;;;;;;;;;;;0.70;99.90;;;;;;5092721;28;19966;-79
2021/12/20 02:44:19;;;;;;;;;;;0.70;99.90;;;;;;5092792;28;20065;-79
2021/12/20 02:46:51;;;;;;;;;;;0.70;99.90;;;;;;5092703;28;19962;-78
2021/12/20 02:49:19;;;;;;;;;;;0.60;99.90;;;;;;5092748;28;19970;-78
2021/12/20 02:51:49;;;;;;;;;;;0.60;99.90;;;;;;5092938;28;19966;-79
2021/12/20 02:54:16;;;;;;;;;;;0.60;99.90;;;;;;5092492;28;19995;-78
2021/12/20 02:56:43;;;;;;;;;;;0.50;99.90;;;;;;5092832;28;19970;-78
2021/12/20 02:59:11;;;;;;;;;;;0.50;99.90;;;;;;5090588;28;20027;-78
2021/12/20 03:01:38;;;;;;;;;;;0.50;99.90;;;;;;5072073;28;19964;-78
2021/12/20 03:04:06;;;;;;;;;;;0.50;99.90;;;;;;5090465;28;20488;-77
2021/12/20 03:06:38;;;;;;;;;;;0.50;99.90;;;;;;5093035;28;19962;-78
2021/12/20 03:09:09;;;;;;;7.03;3.70;;;0.50;99.90;;;;;;5091821;28;20634;-78
2021/12/20 03:11:37;;;;;;;9.83;3.80;;;0.50;99.90;;;;;;5092781;28;20255;-78
2021/12/20 03:14:13;;;;;;;7.77;3.90;;;0.40;99.90;;;;;;5092392;28;20191;-78
2021/12/20 03:16:41;;;;;;;12.57;3.50;;;0.40;99.90;;;;;;5092059;28;20525;-77
2021/12/20 03:19:08;;;;;;;6.00;3.60;;;0.40;99.90;;;;;;5091968;28;20218;-78
2021/12/20 03:21:35;;;;;;;9.53;3.47;;;0.40;99.90;;;;;;5092285;28;20191;-78
2021/12/20 03:24:02;;;;;;;6.63;3.03;;;0.40;99.90;;;;;;5092027;28;20648;-78
2021/12/20 03:26:31;;;;;;;9.00;3.37;;;0.40;99.90;;;;;;5091905;28;20191;-78
2021/12/20 03:28:58;;;;;;;5.80;3.30;;;0.30;99.90;;;;;;5091963;28;20248;-78
2021/12/20 03:31:25;;;;;;;7.70;3.67;;;0.30;99.90;;;;;;5091950;28;20588;-78
2021/12/20 03:33:52;;;;;;;8.40;2.90;;;0.30;99.90;;;;;;5092351;28;20187;-78
2021/12/20 03:36:19;;;;;;;6.23;3.20;;;0.30;99.90;;;;;;5091868;28;20660;-78
2021/12/20 03:38:46;;;;;;;7.43;3.33;;;0.30;99.90;;;;;;5091966;28;20616;-77
2021/12/20 03:41:13;;;;;;;7.37;3.23;;;0.30;99.90;;;;;;5091947;28;20195;-79
2021/12/20 03:43:42;;;;;;;6.37;3.33;;;0.30;99.90;;;;;;5092208;28;20195;-78
2021/12/20 03:46:09;;;;;;;5.63;3.37;;;0.30;99.90;;;;;;5091750;28;20199;-78
2021/12/20 03:48:36;;;;;;;7.23;3.47;;;0.30;99.90;;;;;;5092040;28;20195;-78
2021/12/20 03:51:06;;;;;;;7.83;3.43;;;0.30;99.90;;;;;;5092098;28;20191;-79
2021/12/20 03:53:35;;;;;;;7.60;2.97;;;0.20;99.90;;;;;;5092012;28;20196;-78
2021/12/20 03:56:02;;;;;;;7.83;3.13;;;0.20;99.90;;;;;;5091716;28;20249;-78
2021/12/20 03:58:30;;;;;;;7.27;3.30;;;0.20;99.90;;;;;;5091950;28;20565;-78
2021/12/20 04:01:00;;;;;;;8.67;3.20;;;0.20;99.90;;;;;;5095667;28;20195;-78
2021/12/20 04:03:30;;;;;;;6.47;3.07;;;0.20;99.90;;;;;;5095570;28;20539;-79
2021/12/20 04:05:57;;;;;;;6.03;3.07;;;0.20;99.90;;;;;;5095731;28;20198;-78
2021/12/20 04:08:25;;;;;;;6.47;2.60;;;0.20;99.90;;;;;;5095619;28;20286;-79
2021/12/20 04:10:52;;;;;;;4.63;2.43;;;0.10;99.90;;;;;;5094776;28;20215;-79
2021/12/20 04:13:19;;;;;;;6.83;2.90;;;0.20;99.90;;;;;;5095280;28;20652;-78
2021/12/20 04:15:46;;;;;;;5.57;2.77;;;0.10;99.90;;;;;;5095434;28;20594;-78
2021/12/20 04:18:14;;;;;;;7.67;2.90;;;0.10;99.90;;;;;;5094876;28;20640;-79
2021/12/20 04:20:41;;;;;;;6.00;2.77;;;0.10;99.90;;;;;;5094927;28;20725;-79
2021/12/20 04:23:08;;;;;;;8.30;2.90;;;0.20;99.90;;;;;;5095009;28;20236;-78
2021/12/20 04:25:35;;;;;;;6.63;2.97;;;0.10;99.90;;;;;;5095145;28;20191;-78
2021/12/20 04:28:02;;;;;;;7.83;2.90;;;0.20;99.90;;;;;;5094812;28;20195;-78
2021/12/20 04:30:31;;;;;;;6.43;2.80;;;0.10;99.90;;;;;;5094810;28;20609;-79
2021/12/20 04:32:59;;;;;;;8.03;2.50;;;0.10;99.90;;;;;;5095015;28;20191;-78
2021/12/20 04:35:28;;;;;;;6.67;2.60;;;0.20;99.90;;;;;;5094939;28;20199;-78
2021/12/20 04:37:57;;;;;;;7.60;2.70;;;0.20;99.90;;;;;;5094710;28;20252;-78
2021/12/20 04:40:24;;;;;;;4.70;2.77;;;0.20;99.90;;;;;;5094245;28;20655;-78
2021/12/20 04:42:54;;;;;;;5.90;2.50;;;0.20;99.90;;;;;;5095060;28;20195;-78
2021/12/20 04:45:23;;;;;;;7.37;2.83;;;0.20;99.90;;;;;;5094604;28;20697;-78
2021/12/20 04:47:50;;;;;;;11.07;2.90;;;0.20;99.90;;;;;;5094727;28;20253;-78
2021/12/20 04:50:17;;;;;;;4.87;2.87;;;0.20;99.90;;;;;;5094557;28;20557;-79
2021/12/20 04:52:46;;;;;;;6.43;2.73;;;0.20;99.90;;;;;;5094593;28;20187;-78
2021/12/20 04:55:14;;;;;;;12.17;3.30;;;0.20;99.90;;;;;;5094690;28;20199;-78
2021/12/20 04:57:43;;;;;;;6.63;3.13;;;0.20;99.90;;;;;;5094501;28;20260;-78
2021/12/20 05:00:14;;;;;;;9.63;3.20;;;0.20;99.90;;;;;;5094415;28;20211;-77
2021/12/20 05:02:41;;;;;;;7.23;3.20;;;0.20;99.90;;;;;;5094350;28;20175;-78
2021/12/20 05:05:10;;;;;;;7.30;3.23;;;0.20;99.90;;;;;;5094502;28;20183;-79
2021/12/20 05:07:38;;;;;;;9.30;3.40;;;0.20;99.90;;;;;;5094349;28;20225;-79
2021/12/20 05:10:11;;;;;;;6.80;3.20;;;0.20;99.90;;;;;;5093101;28;20227;-79
2021/12/20 05:12:38;;;;;;;8.40;3.30;;;0.20;99.90;;;;;;5093844;28;20624;-79
2021/12/20 05:15:06;;;;;;;5.53;3.30;;;0.20;99.90;;;;;;5093827;28;20195;-78
2021/12/20 05:17:34;;;;;;;6.60;3.67;;;0.20;99.90;;;;;;5093945;28;20244;-78
2021/12/20 05:20:02;;;;;;;8.60;4.07;;;0.20;99.90;;;;;;5093754;28;20211;-78
2021/12/20 05:22:29;;;;;;;11.67;4.07;;;0.20;99.90;;;;;;5093697;28;20199;-79
2021/12/20 05:24:56;;;;;;;8.27;3.90;;;0.20;99.90;;;;;;5094044;28;20245;-78
2021/12/20 05:27:24;;;;;;;7.67;3.70;;;0.20;99.90;;;;;;5093897;28;20249;-79
2021/12/20 05:29:51;;;;;;;9.50;4.60;;;0.10;99.90;;;;;;5094304;28;20199;-79
2021/12/20 05:32:18;;;;;;;8.07;4.07;;;0.10;99.90;;;;;;5093493;28;20532;-78
2021/12/20 05:34:45;;;;;;;7.17;3.73;;;0.10;99.90;;;;;;5093875;28;20203;-78
2021/12/20 05:37:13;;;;;;;6.93;3.37;;;0.10;99.90;;;;;;5093456;28;20194;-78
2021/12/20 05:39:41;;;;;;;7.77;3.33;;;0.10;99.90;;;;;;5093293;28;20298;-78
2021/12/20 05:42:08;;;;;;;7.23;3.50;;;0.10;99.90;;;;;;5093752;28;20194;-79
2021/12/20 05:44:37;;;;;;;9.50;3.57;;;0.10;99.90;;;;;;5093314;28;20732;-78
2021/12/20 05:47:04;;;;;;;6.90;3.53;;;0.10;99.90;;;;;;5093308;28;20236;-78
2021/12/20 05:49:32;;;;;;;6.43;3.23;;;0.10;99.90;;;;;;5093466;28;20251;-78
2021/12/20 05:52:02;;;;;;;5.93;3.57;;;0.10;99.90;;;;;;5093222;28;20223;-79
2021/12/20 05:54:32;;;;;;;9.00;3.40;;;0.10;99.90;;;;;;5093506;28;20585;-78
2021/12/20 05:56:59;;;;;;;6.90;3.73;;;0.10;99.90;;;;;;5090762;28;20195;-78
2021/12/20 05:59:26;;;;;;;9.27;4.00;;;0.00;99.90;;;;;;5075657;28;20280;-78
2021/12/20 06:01:55;;;;;;;8.37;3.63;;;0.00;99.90;;;;;;5072941;28;20247;-79
2021/12/20 06:04:24;;;;;;;6.53;3.37;;;0.00;99.90;;;;;;5072831;28;20203;-79
2021/12/20 06:06:51;;;;;;;11.23;4.13;;;0.00;99.90;;;;;;5080838;28;20566;-78
2021/12/20 06:09:18;;;;;;;8.83;3.90;;;0.00;99.90;;;;;;5092432;28;20207;-79
2021/12/20 06:11:45;;;;;;;9.13;4.20;;;0.00;99.90;;;;;;5092898;28;20297;-79
2021/12/20 06:14:12;;;;;;;8.07;3.90;;;0.00;99.90;;;;;;5092837;28;20194;-79
2021/12/20 06:16:39;;;;;;;8.50;4.50;;;0.00;99.90;;;;;;5093059;28;20203;-79
2021/12/20 06:19:07;;;;;;;8.80;4.10;;;0.00;99.90;;;;;;5092971;28;20219;-78
2021/12/20 06:21:35;;;;;;;7.60;4.40;;;0.00;99.90;;;;;;5092726;28;20187;-78
2021/12/20 06:24:02;;;;;;;9.97;4.63;;;-0.10;99.90;;;;;;5092918;28;20203;-78
2021/12/20 06:26:29;;;;;;;11.27;4.87;;;0.00;99.90;;;;;;5092330;28;20729;-78
2021/12/20 06:28:56;;;;;;;10.97;4.97;;;-0.10;99.90;;;;;;5093091;28;20229;-78
2021/12/20 06:31:24;;;;;;;13.47;5.53;;;-0.10;99.90;;;;;;5092581;28;20187;-78
2021/12/20 06:33:53;;;;;;;12.53;6.40;;;-0.10;99.90;;;;;;5092611;28;20195;-79
2021/12/20 06:36:21;;;;;;;13.40;6.10;;;-0.10;99.90;;;;;;5092461;28;20264;-78
2021/12/20 06:38:53;;;;;;;16.40;5.67;;;-0.20;99.90;;;;;;5092448;28;20191;-78
2021/12/20 06:41:20;;;;;;;9.70;4.70;;;-0.20;99.90;;;;;;5092793;28;20206;-78
2021/12/20 06:43:48;;;;;;;10.67;5.17;;;-0.20;99.90;;;;;;5092556;28;20195;-79
2021/12/20 06:46:16;;;;;;;15.90;6.97;;;-0.20;99.90;;;;;;5092387;28;20191;-79
2021/12/20 06:48:43;;;;;;;15.70;6.77;;;-0.30;99.90;;;;;;5092358;28;20191;-78
2021/12/20 06:51:11;;;;;;;12.20;5.63;;;-0.30;99.90;;;;;;5092322;28;20248;-78
2021/12/20 06:53:39;;;;;;;12.73;5.83;;;-0.30;99.90;;;;;;5075188;28;20245;-78
2021/12/20 06:56:06;;;;;;;13.67;5.53;;;-0.40;99.90;;;;;;5072460;28;20192;-78
2021/12/20 06:58:33;;;;;;;12.67;5.30;;;-0.30;99.90;;;;;;5072340;28;20256;-78
2021/12/20 07:01:01;;;;;;;10.00;4.80;;;-0.30;99.90;;;;;;5071953;28;20207;-78
2021/12/20 07:03:28;;;;;;;13.63;5.10;;;-0.40;99.90;;;;;;5072679;28;20244;-78
2021/12/20 07:05:55;;;;;;;11.93;5.57;;;-0.30;99.90;;;;;;5092723;28;20195;-78
2021/12/20 07:08:22;;;;;;;17.27;5.37;;;-0.30;99.90;;;;;;5092435;28;20199;-78
2021/12/20 07:10:51;;;;;;;22.90;10.97;;;-0.40;99.90;;;;;;5092475;28;20546;-78
2021/12/20 07:13:18;;;;;;;12.50;6.53;;;-0.30;99.90;;;;;;5092383;28;20214;-78
2021/12/20 07:15:45;;;;;;;11.30;4.93;;;-0.30;99.90;;;;;;5092294;28;20554;-79
2021/12/20 07:18:12;;;;;;;12.73;5.30;;;-0.30;99.90;;;;;;5092147;28;20191;-78
2021/12/20 07:20:40;;;;;;;10.70;5.10;;;-0.30;99.90;;;;;;5092259;28;20215;-78
2021/12/20 07:23:07;;;;;;;14.53;5.50;;;-0.30;99.90;;;;;;5091986;28;20191;-78
2021/12/20 07:25:35;;;;;;;12.80;6.63;;;-0.20;99.90;;;;;;5092182;28;20190;-79
2021/12/20 07:28:08;;;;;;;14.87;5.80;;;-0.20;99.90;;;;;;5091125;28;20198;-78
2021/12/20 07:30:39;;;;;;;12.70;5.20;;;-0.20;99.90;;;;;;5091345;28;20553;-78
2021/12/20 07:33:07;;;;;;;11.13;5.10;;;-0.10;99.90;;;;;;5090756;28;20284;-79
2021/12/20 07:35:34;;;;;;;12.37;5.50;;;-0.10;99.90;;;;;;5094745;28;20199;-79
2021/12/20 07:38:03;;;;;;;12.70;5.43;;;-0.10;99.90;;;;;;5095743;28;20195;-79
2021/12/20 07:40:31;;;;;;;10.20;5.03;;;-0.10;99.90;;;;;;5096245;28;20566;-78
2021/12/20 07:42:58;;;;;;;10.13;5.23;;;-0.10;99.90;;;;;;5096345;28;20195;-78
2021/12/20 07:45:27;;;;;;;11.53;5.60;;;0.00;99.90;;;;;;5095971;28;20191;-78
2021/12/20 07:47:54;;;;;;;12.77;5.80;;;0.00;99.90;;;;;;5089766;28;20218;-78
2021/12/20 07:50:22;;;;;;;11.57;4.90;;;0.10;99.90;;;;;;5095170;28;20199;-80
2021/12/20 07:52:49;;;;;;;12.53;5.43;;;0.10;99.90;;;;;;5095887;28;20278;-79
2021/12/20 07:55:17;;;;;;;11.13;4.60;;;0.20;99.90;;;;;;5095412;28;20199;-79
2021/12/20 07:57:45;;;;;;;16.00;5.57;;;0.20;99.90;;;;;;5075148;28;20644;-79
2021/12/20 08:00:13;;;;;;;12.80;5.40;;;0.30;99.90;;;;;;5080421;28;20215;-79
2021/12/20 08:02:42;;;;;;;9.80;4.80;;;0.30;99.90;;;;;;5074953;28;20610;-79
2021/12/20 08:05:10;;;;;;;14.13;5.60;;;0.40;99.90;;;;;;5074993;28;20191;-79
2021/12/20 08:07:37;;;;;;;19.77;9.67;;;0.40;99.90;;;;;;5075091;28;20195;-79
2021/12/20 08:10:05;;;;;;;11.83;6.37;;;0.50;99.90;;;;;;5075106;28;20224;-79
2021/12/20 08:12:33;;;;;;;17.60;6.50;;;0.60;99.90;;;;;;5075161;28;20191;-79
2021/12/20 08:15:00;;;;;;;15.80;6.70;;;0.60;99.90;;;;;;5075505;28;20202;-79
2021/12/20 08:17:28;;;;;;;14.80;6.73;;;0.70;99.90;;;;;;5084343;28;20270;-79
2021/12/20 08:19:57;;;;;;;12.13;6.70;;;0.70;99.90;;;;;;5095116;28;20242;-79
2021/12/20 08:22:25;;;;;;;14.30;6.90;;;0.80;99.90;;;;;;5083643;28;20555;-79
2021/12/20 08:24:52;;;;;;;14.80;6.83;;;0.90;99.90;;;;;;5074541;28;20202;-79
2021/12/20 08:27:21;;;;;;;13.40;7.37;;;0.90;99.90;;;;;;5074894;28;20200;-79
2021/12/20 08:29:48;;;;;;;16.33;7.50;;;1.00;99.90;;;;;;5090433;28;20667;-79
2021/12/20 08:32:15;;;;;;;16.93;8.27;;;1.10;99.90;;;;;;5084082;28;20187;-79
2021/12/20 08:34:43;;;;;;;16.03;9.17;;;1.20;99.90;;;;;;5094708;28;20659;-79
2021/12/20 08:37:12;;;;;;;21.60;10.93;;;1.30;99.90;;;;;;5087415;28;20283;-79
2021/12/20 08:39:39;;;;;;;14.60;7.77;;;1.40;99.90;;;;;;5075037;28;20224;-79
2021/12/20 08:42:07;;;;;;;16.30;8.00;;;1.40;99.90;;;;;;5094338;28;20266;-79
2021/12/20 08:44:35;;;;;;;9.10;5.50;;;1.50;99.90;;;;;;5094259;28;20191;-79
2021/12/20 08:47:03;;;;;;;18.33;7.80;;;1.60;99.90;;;;;;5087286;28;20200;-79
2021/12/20 08:49:30;;;;;;;11.87;4.97;;;1.60;99.90;;;;;;5074936;28;20192;-79
2021/12/20 08:51:58;;;;;;;16.40;8.97;;;1.70;99.90;;;;;;5074407;28;20203;-79
2021/12/20 08:54:29;;;;;;;8.77;5.43;;;1.90;99.90;;;;;;5074136;28;20208;-79
2021/12/20 08:56:57;;;;;;;11.63;5.53;;;2.00;99.90;;;;;;5074442;28;20253;-78
2021/12/20 08:59:25;;;;;;;9.93;4.83;;;2.30;99.90;;;;;;5073977;28;20196;-79
2021/12/20 09:01:55;;;;;;;7.93;3.73;;;2.70;99.90;;;;;;5078876;28;20241;-79
2021/12/20 09:04:22;;;;;;;8.83;5.03;;;3.20;99.90;;;;;;5094569;28;20557;-79
2021/12/20 09:06:50;;;;;;;12.37;5.57;;;3.80;99.90;;;;;;5094133;28;20181;-79
2021/12/20 09:09:17;;;;;;;8.13;3.43;;;4.40;99.90;;;;;;5094055;28;20206;-79
2021/12/20 09:11:47;;;;;;;7.00;4.10;;;5.00;99.90;;;;;;5094078;28;20227;-79
2021/12/20 09:14:14;;;;;;;8.93;3.90;;;5.50;99.90;;;;;;5093766;28;20199;-79
2021/12/20 09:16:43;;;;;;;6.03;3.60;;;5.90;99.90;;;;;;5093879;28;20190;-79
2021/12/20 09:19:10;;;;;;;6.87;4.40;;;6.30;99.90;;;;;;5094227;28;20246;-79
2021/12/20 09:21:37;;;;;;;12.17;4.40;;;6.50;99.90;;;;;;5093481;28;20207;-79
2021/12/20 09:24:07;;;;;;;8.67;3.90;;;6.60;99.90;;;;;;5094082;28;20227;-79
2021/12/20 09:26:34;;;;;;;8.07;4.77;;;6.80;99.90;;;;;;5093617;28;20195;-79
2021/12/20 09:29:03;;;;;;;7.47;4.00;;;7.00;99.90;;;;;;5093488;28;20276;-79
2021/12/20 09:31:30;;;;;;;9.37;5.20;;;7.30;99.90;;;;;;5093331;28;20196;-79
2021/12/20 09:34:00;;;;;;;8.53;4.20;;;7.40;99.90;;;;;;5093731;28;20203;-79
2021/12/20 09:36:32;;;;;;;5.97;3.87;;;7.30;99.90;;;;;;5093053;28;20185;-79
2021/12/20 09:39:01;;;;;;;8.23;4.00;;;7.20;99.90;;;;;;5093618;28;20192;-80
2021/12/20 09:42:00;;;;;;;6.33;3.33;;;7.10;99.90;;;;;;5093039;28;20256;-79
2021/12/20 09:44:26;;;;;;;7.00;4.33;;;6.70;99.90;;;;;;5090725;28;20190;-79
2021/12/20 09:46:56;;;;;;;8.77;4.50;;;6.30;99.90;;;;;;5088236;28;20213;-79
2021/12/20 09:49:23;;;;;;;7.27;3.67;;;6.00;99.90;;;;;;5093429;28;20197;-79
2021/12/20 09:51:57;;;;;;;5.40;3.47;;;5.80;99.90;;;;;;5093202;28;20202;-79
2021/12/20 09:54:24;;;;;;;7.10;3.33;;;5.60;99.90;;;;;;5092714;28;20182;-79
2021/12/20 09:56:53;;;;;;;9.47;3.60;;;5.60;99.90;;;;;;5092318;28;20189;-79
2021/12/20 09:59:24;;;;;;;6.23;3.50;;;5.50;99.90;;;;;;5093153;28;20193;-78
2021/12/20 10:01:53;;;;;;;6.97;3.57;;;5.50;99.90;;;;;;5092732;28;20567;-79
2021/12/20 10:04:22;;;;;;;7.03;3.37;;;5.50;99.90;;;;;;5092896;28;20184;-79
2021/12/20 10:06:54;;;;;;;10.33;4.23;;;5.50;99.90;;;;;;5090270;28;20185;-79
2021/12/20 10:09:26;;;;;;;12.27;5.10;;;5.60;99.90;;;;;;5093060;28;20189;-79
2021/12/20 10:12:13;;;;;;;6.67;3.23;;;5.50;99.90;;;;;;5092568;28;20630;-79
2021/12/20 10:15:05;;;;;;;7.43;4.10;;;5.30;99.90;;;;;;5093109;28;20191;-78
2021/12/20 10:17:49;;;;;;;7.37;3.97;;;5.10;99.90;;;;;;5092428;28;20254;-78
2021/12/20 10:20:20;;;;;;;5.17;3.30;;;4.90;99.90;;;;;;5091939;28;20206;-79
2021/12/20 10:22:48;;;;;;;7.33;3.37;;;4.70;99.90;;;;;;5079176;28;20188;-79
2021/12/20 10:25:23;;;;;;;8.03;3.13;;;4.60;99.90;;;;;;5072332;28;20198;-79
2021/12/20 10:27:51;;;;;;;6.87;3.00;;;4.50;99.90;;;;;;5084512;28;20195;-79
2021/12/20 10:30:24;;;;;;;3.80;2.40;;;4.40;99.90;;;;;;5091242;28;20198;-79
2021/12/20 10:32:54;;;;;;;8.20;3.00;;;4.40;99.90;;;;;;5091720;28;20191;-78
2021/12/20 10:35:33;;;;;;;4.27;2.10;;;4.30;99.90;;;;;;5092376;28;20731;-79
2021/12/20 10:38:04;;;;;;;7.23;2.70;;;4.20;99.90;;;;;;5088879;28;20190;-79
2021/12/20 10:40:31;;;;;;;6.27;2.30;;;4.10;99.90;;;;;;5071845;28;20679;-79
2021/12/20 10:43:00;;;;;;;6.30;2.90;;;4.00;99.90;;;;;;5084001;28;20663;-79
2021/12/20 10:45:28;;;;;;;7.60;2.47;;;3.90;99.90;;;;;;5092716;28;20542;-79
2021/12/20 10:48:10;;;;;;;6.57;2.60;;;3.90;99.90;;;;;;5092416;28;20204;-79
2021/12/20 10:50:42;;;;;;;9.03;4.43;;;3.90;99.90;;;;;;5081533;28;20672;-79
2021/12/20 10:53:15;;;;;;;14.33;5.80;;;3.80;99.90;;;;;;5072389;28;20216;-79
2021/12/20 10:55:46;;;;;;;10.07;4.97;;;3.80;99.90;;;;;;5072172;28;20190;-80
2021/12/20 10:58:29;;;;;;;13.47;5.97;;;3.90;99.90;;;;;;5072682;28;20198;-79
2021/12/20 11:01:12;;;;;;;6.40;4.23;;;3.90;99.90;;;;;;5073066;28;20210;-80
2021/12/20 11:03:42;;;;;;;10.90;4.73;;;3.90;99.90;;;;;;5092389;28;20269;-80
2021/12/20 11:09:09;;;;;;;7.53;4.00;;;4.10;99.90;;;;;;5093301;28;20196;-79
2021/12/20 11:11:39;;;;;;;12.87;6.20;;;4.30;99.90;;;;;;5097239;28;20288;-79
2021/12/20 11:14:08;;;;;;;9.57;3.20;;;4.50;99.90;;;;;;5096827;28;20674;-80
2021/12/20 11:16:38;;;;;;;7.27;3.27;;;4.60;99.90;;;;;;5096213;28;20700;-80
2021/12/20 11:19:26;;;;;;;7.73;3.53;;;4.70;99.90;;;;;;5076178;28;20180;-80
2021/12/20 11:22:07;;;;;;;8.77;3.73;;;4.80;99.90;;;;;;5075846;28;20211;-79
2021/12/20 11:24:40;;;;;;;8.93;4.30;;;4.90;99.90;;;;;;5076148;28;20191;-80
2021/12/20 11:27:10;;;;;;;6.40;3.17;;;5.00;99.90;;;;;;5076320;28;20176;-80
2021/12/20 11:29:38;;;;;;;5.37;3.00;;;4.90;99.90;;;;;;5076444;28;20198;-80
2021/12/20 11:32:27;;;;;;;3.77;2.07;;;4.90;99.90;;;;;;5084845;28;20191;-80
2021/12/20 11:34:56;;;;;;;4.93;2.13;;;4.70;99.90;;;;;;5091952;28;20180;-80
2021/12/20 11:37:26;;;;;;;4.43;1.80;;;4.60;99.90;;;;;;5095110;28;20199;-80
2021/12/20 11:39:54;;;;;;;5.00;1.90;;;4.60;99.90;;;;;;5095502;28;20195;-80
2021/12/20 11:42:22;;;;;;;17.33;3.90;;;4.60;99.90;;;;;;5095225;28;20215;-80
2021/12/20 11:44:55;;;;;;;9.63;2.77;;;4.60;99.90;;;;;;5095116;28;20548;-79
2021/12/20 11:47:28;;;;;;;3.10;1.70;;;4.60;99.90;;;;;;5095087;28;20200;-80
2021/12/20 11:49:59;;;;;;;8.17;3.90;;;4.70;99.90;;;;;;5095467;28;20240;-80
2021/12/20 11:52:31;;;;;;;6.47;3.63;;;4.70;99.90;;;;;;5095315;28;20197;-79
2021/12/20 11:54:59;;;;;;;14.93;7.93;;;4.70;99.90;;;;;;5094546;28;20175;-80
2021/12/20 11:57:44;;;;;;;6.60;3.93;;;4.70;99.90;;;;;;5093001;28;20191;-80
2021/12/20 12:00:32;;;;;;;7.20;3.30;;;4.70;99.90;;;;;;5079383;28;20187;-79
2021/12/20 12:03:03;;;;;;;4.17;2.00;;;4.80;99.90;;;;;;5094525;28;20190;-80
2021/12/20 12:05:42;;;;;;;3.90;2.30;;;5.00;99.90;;;;;;5095000;28;20175;-79
2021/12/20 12:09:02;;;;;;;7.90;2.23;;;5.00;99.90;;;;;;5094168;28;20266;-79
2021/12/20 12:11:37;;;;;;;2.27;1.20;;;5.10;99.90;;;;;;5094156;28;20713;-80
2021/12/20 12:17:47;;;;;;;2.13;1.00;;;4.80;99.90;;;;;;5094911;28;20335;-79
2021/12/20 12:20:15;;;;;;;4.53;1.87;;;4.70;99.90;;;;;;5094785;28;20187;-80
2021/12/20 12:22:44;;;;;;;7.10;3.10;;;4.60;99.90;;;;;;5095587;28;20226;-80
2021/12/20 12:25:14;;;;;;;5.57;2.93;;;4.60;99.90;;;;;;5095208;28;20202;-79
2021/12/20 12:27:44;;;;;;;5.63;3.10;;;4.60;99.90;;;;;;5095196;28;20625;-80
2021/12/20 12:30:36;;;;;;;10.03;4.87;;;4.60;99.90;;;;;;5095404;28;20597;-79
2021/12/20 12:33:34;;;;;;;7.20;4.27;;;4.40;99.90;;;;;;5094518;28;20183;-79
2021/12/20 12:36:31;;;;;;;5.13;3.00;;;4.30;99.90;;;;;;5094143;28;20175;-80
2021/12/20 12:39:10;;;;;;;6.33;3.60;;;4.20;99.90;;;;;;5094773;28;20175;-80
2021/12/20 12:41:48;;;;;;;5.47;3.60;;;4.10;99.90;;;;;;5094692;28;20203;-79
2021/12/20 12:44:27;;;;;;;7.77;3.90;;;4.10;99.90;;;;;;5094694;28;20189;-80
2021/12/20 12:47:03;;;;;;;3.57;2.10;;;4.10;99.90;;;;;;5095024;28;20191;-80
2021/12/20 12:49:42;;;;;;;3.77;2.00;;;4.00;99.90;;;;;;5095001;28;20182;-79
2021/12/20 12:52:30;;;;;;;4.40;1.90;;;4.10;99.90;;;;;;5095218;28;20190;-79
2021/12/20 12:55:02;;;;;;;2.77;1.10;;;4.00;99.90;;;;;;5094843;28;20184;-80
2021/12/20 12:57:35;;;;;;;4.23;1.70;;;3.90;99.90;;;;;;5093900;28;20616;-80
2021/12/20 13:00:13;;;;;;;4.40;1.73;;;3.90;99.90;;;;;;5094268;28;20198;-80
2021/12/20 13:02:44;;;;;;;3.73;1.40;;;3.80;99.90;;;;;;5094124;28;20203;-80
2021/12/20 13:05:15;;;;;;;2.63;2.30;;;3.80;99.90;;;;;;5094894;28;20184;-80
2021/12/20 13:07:48;;;;;;;4.10;1.60;;;3.70;99.90;;;;;;5094205;28;20660;-80
2021/12/20 13:10:19;;;;;;;2.93;1.40;;;3.70;99.90;;;;;;5093497;28;20219;-80
2021/12/20 13:12:52;;;;;;;4.13;1.50;;;3.60;99.90;;;;;;5093938;28;20282;-80
2021/12/20 13:15:25;;;;;;;7.53;2.80;;;3.60;99.90;;;;;;5094048;28;20240;-80
2021/12/20 13:17:59;;;;;;;5.73;2.30;;;3.60;99.90;;;;;;5094016;28;20191;-80
2021/12/20 13:20:33;;;;;;;4.10;1.90;;;3.60;99.90;;;;;;5093949;28;20654;-80
2021/12/20 13:23:03;;;;;;;11.43;4.30;;;3.70;99.90;;;;;;5094169;28;20260;-80
2021/12/20 13:25:44;;;;;;;5.30;2.70;;;3.70;99.90;;;;;;5093667;28;20178;-79
2021/12/20 13:28:14;;;;;;;6.20;1.73;;;3.80;99.90;;;;;;5093360;28;20630;-80
2021/12/20 13:30:45;;;;;;;2.97;1.80;;;3.90;99.90;;;;;;5093282;28;20182;-80
2021/12/20 13:33:13;;;;;;;2.70;1.93;;;3.90;99.90;;;;;;5092836;28;20182;-80
2021/12/20 13:35:41;;;;;;;6.53;2.10;;;3.90;99.90;;;;;;5093335;28;20592;-79
2021/12/20 13:38:17;;;;;;;2.33;1.30;;;4.00;99.90;;;;;;5093405;28;20197;-80
2021/12/20 13:40:51;;;;;;;2.43;1.20;;;4.00;99.90;;;;;;5093732;28;20182;-80
2021/12/20 13:43:24;;;;;;;3.30;1.60;;;4.10;99.90;;;;;;5093422;28;20176;-80